Aérodrome :
LOGIN :

S'inscrire | Disclaimer

   EN    FR    IT 

 










Légende :    VFR   VFR Marginal   IFR   IFR Intensif   IFR Très Intensif
Visi : 
Plafond : 
>= 8 km
>= 3000ft
5 à 8 km
1000 à 3000 ft
1500m à 5 km
500 à 1000 ft
800 à 1500m
200 à 500 ft
< 800m
< 200 ft
Symboles :   Orages  Brouillard  Fortes neiges  Fortes précipitations  Vent > 20 kt
SIGMETs :   Divers  Orages  Givrage  Turbulence  Onde Orograph.  Cendres Volcan.







- Altitude de l'aérodrome : 16 ft
- Code IATA : LPX


EVLA - Liepaja

DERNIER METAR :
  • 240650Z AUTO 36004KT 310V050 9999 FEW024/// SCT030/// 15/09 Q1011

METARs EXPIRÉS :
  • 240620Z AUTO 03008KT 9999 FEW022/// SCT140/// BKN200/// 15/09 Q1011
  • 240550Z AUTO 36005KT 290V060 9999 SCT021/// SCT170/// 15/10 Q1011
  • 240520Z AUTO 01005KT 320V070 9999 NCD 14/09 Q1011
  • 240450Z AUTO 02003KT 340V050 9999 FEW120/// SCT160/// 13/10 Q1011
  • 240420Z AUTO 00000KT 9999 FEW100/// SCT150/// 11/10 Q1011

TAF TAF EVLA
Valide du 24 à 06h jusqu'au 25 à 06h UTC


240503Z 2406/2506 36007KT 9999 SCT040
TEMPO 2412/2418 35015G25KT SCT030CB
TEMPO 2418/2506 3000 -RA BR BKN010
Pas de NOTAMs connus pour ce terrain.



MET'MAP, la Météo Aéronautique d'un coup d'oeil ! - Copyright ORBIFLY Décembre 2007 - Disclaimer

ORBIFLY MET'MAP TEAM :

Programmation & Développement : Alexandra Zaïnal
Conception & Développement : Baudouin d'Aumeries
Co-Programmation & Développement : Marc-Olivier Méhu
Soutien technique & logistique : Manuel Goepfert

Contact : metmap@orbifly.com




SOURCES & CREDITS :

   NOAA